Schedule Details

Flight Number: CPX325
Departure: March Air Reserve Base (KRIV) at N/A
Arrival: Fort Worth Alliance Airport (KAFW) at N/A
Route: TRM J78 ABQ J72 TURKI WESAT2


Current Weather Information
KRIV 180603Z AUTO 24008KT 10SM SCT023 BKN029 BKN035 BKN043 BKN055 07/06 A2995 RMK AO2 CIG 029V043 BKN029 V SCT SLP144
KAFW 180553Z 36006KT 10SM BKN250 03/M02 A3013 RMK AO2 SLP209 T00331017 10089 20028 401280028 51013

Route Map